sensor_id;sensor_type;location;lat;lon;timestamp;P1;durP1;ratioP1;P2;durP2;ratioP2
54247;SDS011;40161;39.768;2.722;2023-09-08T00:01:22;6.88;;;2.92;;
54247;SDS011;40161;39.768;2.722;2023-09-08T00:03:48;4.43;;;2.75;;
54247;SDS011;40161;39.768;2.722;2023-09-08T00:06:13;4.63;;;2.88;;
54247;SDS011;40161;39.768;2.722;2023-09-08T00:08:39;5.43;;;2.97;;
54247;SDS011;40161;39.768;2.722;2023-09-08T00:11:04;5.82;;;2.92;;
54247;SDS011;40161;39.768;2.722;2023-09-08T00:13:31;4.45;;;2.97;;
54247;SDS011;40161;39.768;2.722;2023-09-08T00:15:57;6.63;;;2.80;;
54247;SDS011;40161;39.768;2.722;2023-09-08T00:18:22;4.63;;;2.70;;
54247;SDS011;40161;39.768;2.722;2023-09-08T00:20:48;6.53;;;3.20;;
54247;SDS011;40161;39.768;2.722;2023-09-08T00:23:14;5.47;;;3.25;;
54247;SDS011;40161;39.768;2.722;2023-09-08T00:25:39;6.32;;;3.10;;
54247;SDS011;40161;39.768;2.722;2023-09-08T00:28:05;4.82;;;3.15;;
54247;SDS011;40161;39.768;2.722;2023-09-08T00:30:31;4.72;;;3.08;;
54247;SDS011;40161;39.768;2.722;2023-09-08T00:32:57;4.80;;;2.88;;
54247;SDS011;40161;39.768;2.722;2023-09-08T00:35:22;6.55;;;2.97;;
54247;SDS011;40161;39.768;2.722;2023-09-08T00:37:48;5.00;;;3.03;;
54247;SDS011;40161;39.768;2.722;2023-09-08T00:40:13;6.35;;;2.47;;
54247;SDS011;40161;39.768;2.722;2023-09-08T00:42:39;4.25;;;2.83;;
54247;SDS011;40161;39.768;2.722;2023-09-08T00:45:05;6.03;;;3.22;;
54247;SDS011;40161;39.768;2.722;2023-09-08T00:47:31;4.82;;;2.85;;
54247;SDS011;40161;39.768;2.722;2023-09-08T00:49:58;7.30;;;3.58;;
54247;SDS011;40161;39.768;2.722;2023-09-08T00:52:24;5.65;;;3.08;;
54247;SDS011;40161;39.768;2.722;2023-09-08T00:54:49;5.22;;;3.00;;
54247;SDS011;40161;39.768;2.722;2023-09-08T00:57:15;5.35;;;3.25;;
54247;SDS011;40161;39.768;2.722;2023-09-08T00:59:40;7.25;;;3.10;;
54247;SDS011;40161;39.768;2.722;2023-09-08T01:02:06;5.78;;;3.25;;
54247;SDS011;40161;39.768;2.722;2023-09-08T01:04:32;5.03;;;3.20;;
54247;SDS011;40161;39.768;2.722;2023-09-08T01:06:58;4.53;;;2.60;;
54247;SDS011;40161;39.768;2.722;2023-09-08T01:09:25;6.32;;;3.17;;
54247;SDS011;40161;39.768;2.722;2023-09-08T01:11:51;5.40;;;3.13;;
54247;SDS011;40161;39.768;2.722;2023-09-08T01:14:20;5.65;;;3.15;;
54247;SDS011;40161;39.768;2.722;2023-09-08T01:16:45;5.60;;;2.92;;
54247;SDS011;40161;39.768;2.722;2023-09-08T01:19:12;5.43;;;3.03;;
54247;SDS011;40161;39.768;2.722;2023-09-08T01:27:19;6.10;;;3.30;;
54247;SDS011;40161;39.768;2.722;2023-09-08T01:29:49;6.85;;;2.97;;
54247;SDS011;40161;39.768;2.722;2023-09-08T01:32:16;5.88;;;3.50;;
54247;SDS011;40161;39.768;2.722;2023-09-08T01:34:42;5.85;;;3.10;;
54247;SDS011;40161;39.768;2.722;2023-09-08T01:37:07;4.78;;;3.05;;
54247;SDS011;40161;39.768;2.722;2023-09-08T01:39:33;6.72;;;3.42;;
54247;SDS011;40161;39.768;2.722;2023-09-08T01:41:59;6.75;;;3.10;;
54247;SDS011;40161;39.768;2.722;2023-09-08T01:44:24;5.63;;;2.92;;
54247;SDS011;40161;39.768;2.722;2023-09-08T01:46:50;5.40;;;3.00;;
54247;SDS011;40161;39.768;2.722;2023-09-08T01:49:21;8.50;;;3.40;;
54247;SDS011;40161;39.768;2.722;2023-09-08T01:51:47;5.03;;;2.70;;
54247;SDS011;40161;39.768;2.722;2023-09-08T01:54:13;6.80;;;3.13;;
54247;SDS011;40161;39.768;2.722;2023-09-08T01:56:38;6.55;;;3.92;;
54247;SDS011;40161;39.768;2.722;2023-09-08T01:59:04;5.53;;;3.40;;
54247;SDS011;40161;39.768;2.722;2023-09-08T02:01:29;6.13;;;3.50;;
54247;SDS011;40161;39.768;2.722;2023-09-08T02:03:56;5.63;;;3.22;;
54247;SDS011;40161;39.768;2.722;2023-09-08T02:06:21;5.75;;;3.17;;
54247;SDS011;40161;39.768;2.722;2023-09-08T02:08:47;6.32;;;3.40;;
54247;SDS011;40161;39.768;2.722;2023-09-08T02:11:12;5.93;;;3.38;;
54247;SDS011;40161;39.768;2.722;2023-09-08T02:13:38;4.90;;;3.28;;
54247;SDS011;40161;39.768;2.722;2023-09-08T02:16:06;6.10;;;3.20;;
54247;SDS011;40161;39.768;2.722;2023-09-08T02:18:32;6.50;;;3.10;;
54247;SDS011;40161;39.768;2.722;2023-09-08T02:20:58;4.30;;;3.03;;
54247;SDS011;40161;39.768;2.722;2023-09-08T02:23:23;5.10;;;3.30;;
54247;SDS011;40161;39.768;2.722;2023-09-08T02:25:49;6.32;;;3.03;;
54247;SDS011;40161;39.768;2.722;2023-09-08T02:28:14;5.35;;;3.00;;
54247;SDS011;40161;39.768;2.722;2023-09-08T02:30:40;7.70;;;3.30;;
54247;SDS011;40161;39.768;2.722;2023-09-08T02:33:05;7.15;;;3.35;;
54247;SDS011;40161;39.768;2.722;2023-09-08T02:35:35;5.72;;;3.10;;
54247;SDS011;40161;39.768;2.722;2023-09-08T02:38:01;6.10;;;3.03;;
54247;SDS011;40161;39.768;2.722;2023-09-08T02:40:27;5.00;;;2.92;;
54247;SDS011;40161;39.768;2.722;2023-09-08T02:42:53;5.13;;;3.10;;
54247;SDS011;40161;39.768;2.722;2023-09-08T02:45:18;4.93;;;3.10;;
54247;SDS011;40161;39.768;2.722;2023-09-08T02:47:44;5.05;;;2.95;;
54247;SDS011;40161;39.768;2.722;2023-09-08T02:50:09;5.65;;;2.90;;
54247;SDS011;40161;39.768;2.722;2023-09-08T02:52:35;5.13;;;3.03;;
54247;SDS011;40161;39.768;2.722;2023-09-08T02:55:00;6.10;;;3.22;;
54247;SDS011;40161;39.768;2.722;2023-09-08T02:57:26;5.60;;;3.28;;
54247;SDS011;40161;39.768;2.722;2023-09-08T02:59:52;4.45;;;3.00;;
54247;SDS011;40161;39.768;2.722;2023-09-08T03:02:21;6.40;;;3.60;;
54247;SDS011;40161;39.768;2.722;2023-09-08T03:04:46;5.10;;;3.05;;
54247;SDS011;40161;39.768;2.722;2023-09-08T03:07:12;4.97;;;3.25;;
54247;SDS011;40161;39.768;2.722;2023-09-08T03:09:37;5.22;;;3.10;;
54247;SDS011;40161;39.768;2.722;2023-09-08T03:12:03;4.93;;;2.97;;
54247;SDS011;40161;39.768;2.722;2023-09-08T03:14:29;6.57;;;3.30;;
54247;SDS011;40161;39.768;2.722;2023-09-08T03:16:54;4.68;;;2.83;;
54247;SDS011;40161;39.768;2.722;2023-09-08T03:19:20;4.90;;;3.13;;
54247;SDS011;40161;39.768;2.722;2023-09-08T03:21:46;6.15;;;3.47;;
54247;SDS011;40161;39.768;2.722;2023-09-08T03:24:11;5.63;;;3.03;;
54247;SDS011;40161;39.768;2.722;2023-09-08T03:26:37;6.10;;;3.15;;
54247;SDS011;40161;39.768;2.722;2023-09-08T03:29:04;4.72;;;3.30;;
54247;SDS011;40161;39.768;2.722;2023-09-08T03:31:30;6.15;;;3.33;;
54247;SDS011;40161;39.768;2.722;2023-09-08T03:33:56;5.63;;;3.58;;
54247;SDS011;40161;39.768;2.722;2023-09-08T03:36:21;5.70;;;3.85;;
54247;SDS011;40161;39.768;2.722;2023-09-08T03:38:47;5.55;;;3.35;;
54247;SDS011;40161;39.768;2.722;2023-09-08T03:41:12;5.57;;;3.15;;
54247;SDS011;40161;39.768;2.722;2023-09-08T03:43:38;6.00;;;3.22;;
54247;SDS011;40161;39.768;2.722;2023-09-08T03:46:04;5.68;;;3.03;;
54247;SDS011;40161;39.768;2.722;2023-09-08T03:48:29;8.45;;;3.22;;
54247;SDS011;40161;39.768;2.722;2023-09-08T03:50:55;4.97;;;3.30;;
54247;SDS011;40161;39.768;2.722;2023-09-08T03:53:20;5.20;;;3.33;;
54247;SDS011;40161;39.768;2.722;2023-09-08T03:55:46;7.35;;;3.55;;
54247;SDS011;40161;39.768;2.722;2023-09-08T03:58:11;5.03;;;3.20;;
54247;SDS011;40161;39.768;2.722;2023-09-08T04:00:37;5.07;;;3.10;;
54247;SDS011;40161;39.768;2.722;2023-09-08T04:03:03;6.07;;;3.42;;
54247;SDS011;40161;39.768;2.722;2023-09-08T04:05:29;7.07;;;3.50;;
54247;SDS011;40161;39.768;2.722;2023-09-08T04:07:54;6.90;;;3.05;;
54247;SDS011;40161;39.768;2.722;2023-09-08T04:10:20;5.55;;;3.22;;
54247;SDS011;40161;39.768;2.722;2023-09-08T04:12:45;5.30;;;3.08;;
54247;SDS011;40161;39.768;2.722;2023-09-08T04:15:11;5.70;;;3.08;;
54247;SDS011;40161;39.768;2.722;2023-09-08T04:17:37;9.02;;;3.40;;
54247;SDS011;40161;39.768;2.722;2023-09-08T04:20:03;6.85;;;3.30;;
54247;SDS011;40161;39.768;2.722;2023-09-08T04:22:30;5.43;;;3.60;;
54247;SDS011;40161;39.768;2.722;2023-09-08T04:24:56;4.82;;;3.38;;
54247;SDS011;40161;39.768;2.722;2023-09-08T04:27:22;4.70;;;3.10;;
54247;SDS011;40161;39.768;2.722;2023-09-08T04:29:48;6.45;;;3.17;;
54247;SDS011;40161;39.768;2.722;2023-09-08T04:32:14;6.47;;;3.20;;
54247;SDS011;40161;39.768;2.722;2023-09-08T04:34:40;5.32;;;3.20;;
54247;SDS011;40161;39.768;2.722;2023-09-08T04:37:07;4.80;;;3.35;;
54247;SDS011;40161;39.768;2.722;2023-09-08T04:39:33;7.05;;;3.40;;
54247;SDS011;40161;39.768;2.722;2023-09-08T04:41:59;5.95;;;3.40;;
54247;SDS011;40161;39.768;2.722;2023-09-08T04:44:25;9.80;;;3.70;;
54247;SDS011;40161;39.768;2.722;2023-09-08T04:46:51;5.95;;;3.17;;
54247;SDS011;40161;39.768;2.722;2023-09-08T04:49:17;5.00;;;3.40;;
54247;SDS011;40161;39.768;2.722;2023-09-08T04:51:43;7.97;;;3.10;;
54247;SDS011;40161;39.768;2.722;2023-09-08T04:54:09;6.75;;;3.38;;
54247;SDS011;40161;39.768;2.722;2023-09-08T04:56:34;6.00;;;3.13;;
54247;SDS011;40161;39.768;2.722;2023-09-08T04:59:00;4.50;;;3.03;;
54247;SDS011;40161;39.768;2.722;2023-09-08T05:01:26;5.15;;;3.28;;
54247;SDS011;40161;39.768;2.722;2023-09-08T05:03:52;5.65;;;3.35;;
54247;SDS011;40161;39.768;2.722;2023-09-08T05:06:18;6.90;;;3.42;;
54247;SDS011;40161;39.768;2.722;2023-09-08T05:08:43;6.15;;;3.50;;
54247;SDS011;40161;39.768;2.722;2023-09-08T05:11:09;6.03;;;3.17;;
54247;SDS011;40161;39.768;2.722;2023-09-08T05:13:35;5.07;;;3.55;;
54247;SDS011;40161;39.768;2.722;2023-09-08T05:16:01;5.45;;;3.78;;
54247;SDS011;40161;39.768;2.722;2023-09-08T05:18:36;6.68;;;3.47;;
54247;SDS011;40161;39.768;2.722;2023-09-08T05:21:02;5.53;;;3.80;;
54247;SDS011;40161;39.768;2.722;2023-09-08T05:23:28;7.40;;;4.03;;
54247;SDS011;40161;39.768;2.722;2023-09-08T05:25:53;8.63;;;5.10;;
54247;SDS011;40161;39.768;2.722;2023-09-08T05:28:20;7.15;;;3.72;;
54247;SDS011;40161;39.768;2.722;2023-09-08T05:30:45;6.80;;;3.53;;
54247;SDS011;40161;39.768;2.722;2023-09-08T05:33:11;6.50;;;3.30;;
54247;SDS011;40161;39.768;2.722;2023-09-08T05:35:36;7.25;;;3.13;;
54247;SDS011;40161;39.768;2.722;2023-09-08T05:38:02;7.88;;;3.35;;
54247;SDS011;40161;39.768;2.722;2023-09-08T05:40:27;8.23;;;3.83;;
54247;SDS011;40161;39.768;2.722;2023-09-08T05:42:53;8.90;;;3.80;;
54247;SDS011;40161;39.768;2.722;2023-09-08T05:45:18;8.23;;;3.75;;
54247;SDS011;40161;39.768;2.722;2023-09-08T05:47:44;6.53;;;3.65;;
54247;SDS011;40161;39.768;2.722;2023-09-08T05:50:10;8.65;;;3.45;;
54247;SDS011;40161;39.768;2.722;2023-09-08T05:52:36;6.28;;;3.63;;
54247;SDS011;40161;39.768;2.722;2023-09-08T05:55:01;7.85;;;3.65;;
54247;SDS011;40161;39.768;2.722;2023-09-08T05:57:27;5.70;;;3.55;;
54247;SDS011;40161;39.768;2.722;2023-09-08T05:59:52;6.93;;;3.67;;
54247;SDS011;40161;39.768;2.722;2023-09-08T06:02:18;6.93;;;3.70;;
54247;SDS011;40161;39.768;2.722;2023-09-08T06:04:44;6.85;;;3.38;;
54247;SDS011;40161;39.768;2.722;2023-09-08T06:07:09;10.90;;;4.05;;
54247;SDS011;40161;39.768;2.722;2023-09-08T06:09:35;5.95;;;3.42;;
54247;SDS011;40161;39.768;2.722;2023-09-08T06:12:01;7.93;;;3.72;;
54247;SDS011;40161;39.768;2.722;2023-09-08T06:14:26;7.63;;;3.38;;
54247;SDS011;40161;39.768;2.722;2023-09-08T06:16:52;7.00;;;3.72;;
54247;SDS011;40161;39.768;2.722;2023-09-08T06:19:17;8.57;;;3.78;;
54247;SDS011;40161;39.768;2.722;2023-09-08T06:21:43;6.50;;;3.65;;
54247;SDS011;40161;39.768;2.722;2023-09-08T06:24:08;7.53;;;3.58;;
54247;SDS011;40161;39.768;2.722;2023-09-08T06:26:34;6.68;;;3.40;;
54247;SDS011;40161;39.768;2.722;2023-09-08T06:28:59;6.30;;;3.15;;
54247;SDS011;40161;39.768;2.722;2023-09-08T06:31:25;5.15;;;2.95;;
54247;SDS011;40161;39.768;2.722;2023-09-08T06:33:50;8.15;;;3.58;;
54247;SDS011;40161;39.768;2.722;2023-09-08T06:36:17;5.50;;;3.53;;
54247;SDS011;40161;39.768;2.722;2023-09-08T06:38:43;7.10;;;3.08;;
54247;SDS011;40161;39.768;2.722;2023-09-08T06:41:09;6.55;;;3.17;;
54247;SDS011;40161;39.768;2.722;2023-09-08T06:43:36;6.68;;;3.22;;
54247;SDS011;40161;39.768;2.722;2023-09-08T06:46:02;10.15;;;4.15;;
54247;SDS011;40161;39.768;2.722;2023-09-08T06:48:27;7.53;;;3.90;;
54247;SDS011;40161;39.768;2.722;2023-09-08T06:50:53;6.15;;;3.25;;
54247;SDS011;40161;39.768;2.722;2023-09-08T06:53:21;7.00;;;3.63;;
54247;SDS011;40161;39.768;2.722;2023-09-08T06:55:49;6.47;;;3.58;;
54247;SDS011;40161;39.768;2.722;2023-09-08T06:58:15;6.30;;;3.53;;
54247;SDS011;40161;39.768;2.722;2023-09-08T07:00:41;8.30;;;4.20;;
54247;SDS011;40161;39.768;2.722;2023-09-08T07:03:06;6.78;;;3.90;;
54247;SDS011;40161;39.768;2.722;2023-09-08T07:05:33;6.30;;;3.85;;
54247;SDS011;40161;39.768;2.722;2023-09-08T07:08:04;8.63;;;3.75;;
54247;SDS011;40161;39.768;2.722;2023-09-08T07:10:31;7.90;;;3.75;;
54247;SDS011;40161;39.768;2.722;2023-09-08T07:13:00;7.95;;;3.70;;
54247;SDS011;40161;39.768;2.722;2023-09-08T07:15:26;9.02;;;4.22;;
54247;SDS011;40161;39.768;2.722;2023-09-08T07:17:52;6.82;;;3.97;;
54247;SDS011;40161;39.768;2.722;2023-09-08T07:20:17;7.40;;;3.80;;
54247;SDS011;40161;39.768;2.722;2023-09-08T07:22:43;7.63;;;4.40;;
54247;SDS011;40161;39.768;2.722;2023-09-08T07:25:08;7.65;;;4.15;;
54247;SDS011;40161;39.768;2.722;2023-09-08T07:27:34;6.93;;;4.18;;
54247;SDS011;40161;39.768;2.722;2023-09-08T07:30:00;5.97;;;3.63;;
54247;SDS011;40161;39.768;2.722;2023-09-08T07:32:26;10.15;;;3.90;;
54247;SDS011;40161;39.768;2.722;2023-09-08T07:34:51;9.02;;;3.75;;
54247;SDS011;40161;39.768;2.722;2023-09-08T07:37:22;6.50;;;3.78;;
54247;SDS011;40161;39.768;2.722;2023-09-08T07:39:49;6.70;;;3.30;;
54247;SDS011;40161;39.768;2.722;2023-09-08T07:42:15;6.78;;;2.83;;
54247;SDS011;40161;39.768;2.722;2023-09-08T07:44:40;6.05;;;3.13;;
54247;SDS011;40161;39.768;2.722;2023-09-08T07:47:06;6.97;;;3.17;;
54247;SDS011;40161;39.768;2.722;2023-09-08T07:49:34;6.45;;;2.85;;
54247;SDS011;40161;39.768;2.722;2023-09-08T07:52:00;5.88;;;2.60;;
54247;SDS011;40161;39.768;2.722;2023-09-08T07:54:26;8.48;;;2.67;;
54247;SDS011;40161;39.768;2.722;2023-09-08T07:56:53;6.68;;;2.67;;
54247;SDS011;40161;39.768;2.722;2023-09-08T07:59:19;5.53;;;2.63;;
54247;SDS011;40161;39.768;2.722;2023-09-08T08:01:44;5.95;;;2.85;;
54247;SDS011;40161;39.768;2.722;2023-09-08T08:04:10;4.10;;;2.30;;
54247;SDS011;40161;39.768;2.722;2023-09-08T08:06:36;6.55;;;3.03;;
54247;SDS011;40161;39.768;2.722;2023-09-08T08:09:03;5.07;;;2.70;;
54247;SDS011;40161;39.768;2.722;2023-09-08T08:11:29;6.60;;;2.50;;
54247;SDS011;40161;39.768;2.722;2023-09-08T08:13:55;4.90;;;3.00;;
54247;SDS011;40161;39.768;2.722;2023-09-08T08:16:21;5.57;;;2.70;;
54247;SDS011;40161;39.768;2.722;2023-09-08T08:18:48;6.20;;;2.55;;
54247;SDS011;40161;39.768;2.722;2023-09-08T08:21:14;6.10;;;2.83;;
54247;SDS011;40161;39.768;2.722;2023-09-08T08:23:39;5.05;;;2.65;;
54247;SDS011;40161;39.768;2.722;2023-09-08T08:26:05;5.85;;;2.50;;
54247;SDS011;40161;39.768;2.722;2023-09-08T08:28:31;5.43;;;2.90;;
54247;SDS011;40161;39.768;2.722;2023-09-08T08:30:57;5.40;;;3.10;;
54247;SDS011;40161;39.768;2.722;2023-09-08T08:33:23;4.82;;;2.78;;
54247;SDS011;40161;39.768;2.722;2023-09-08T08:35:51;3.80;;;2.30;;
54247;SDS011;40161;39.768;2.722;2023-09-08T08:38:19;4.82;;;2.63;;
54247;SDS011;40161;39.768;2.722;2023-09-08T08:40:45;6.22;;;2.72;;
54247;SDS011;40161;39.768;2.722;2023-09-08T08:43:10;5.03;;;2.58;;
54247;SDS011;40161;39.768;2.722;2023-09-08T08:45:41;5.00;;;2.70;;
54247;SDS011;40161;39.768;2.722;2023-09-08T08:48:08;5.80;;;2.83;;
54247;SDS011;40161;39.768;2.722;2023-09-08T08:50:37;6.57;;;2.60;;
54247;SDS011;40161;39.768;2.722;2023-09-08T08:53:06;10.10;;;3.58;;
54247;SDS011;40161;39.768;2.722;2023-09-08T08:55:34;27.38;;;5.78;;
54247;SDS011;40161;39.768;2.722;2023-09-08T08:58:03;6.82;;;2.90;;
54247;SDS011;40161;39.768;2.722;2023-09-08T09:00:30;8.32;;;2.83;;
54247;SDS011;40161;39.768;2.722;2023-09-08T09:02:59;6.75;;;2.80;;
54247;SDS011;40161;39.768;2.722;2023-09-08T09:05:25;9.93;;;2.92;;
54247;SDS011;40161;39.768;2.722;2023-09-08T09:07:51;6.90;;;2.88;;
54247;SDS011;40161;39.768;2.722;2023-09-08T09:10:18;6.13;;;3.30;;
54247;SDS011;40161;39.768;2.722;2023-09-08T09:12:43;5.75;;;2.90;;
54247;SDS011;40161;39.768;2.722;2023-09-08T09:15:09;29.38;;;6.32;;
54247;SDS011;40161;39.768;2.722;2023-09-08T09:17:36;14.00;;;3.78;;
54247;SDS011;40161;39.768;2.722;2023-09-08T09:20:11;19.48;;;4.82;;
54247;SDS011;40161;39.768;2.722;2023-09-08T09:22:42;4.93;;;2.40;;
54247;SDS011;40161;39.768;2.722;2023-09-08T09:25:24;5.28;;;2.42;;
54247;SDS011;40161;39.768;2.722;2023-09-08T09:27:52;10.27;;;3.15;;
54247;SDS011;40161;39.768;2.722;2023-09-08T09:30:26;6.05;;;2.55;;
54247;SDS011;40161;39.768;2.722;2023-09-08T09:33:02;5.57;;;2.25;;
54247;SDS011;40161;39.768;2.722;2023-09-08T09:35:39;6.05;;;2.50;;
54247;SDS011;40161;39.768;2.722;2023-09-08T09:38:06;6.38;;;2.60;;
54247;SDS011;40161;39.768;2.722;2023-09-08T09:40:33;7.35;;;2.72;;
54247;SDS011;40161;39.768;2.722;2023-09-08T09:42:58;6.57;;;2.35;;
54247;SDS011;40161;39.768;2.722;2023-09-08T09:45:27;4.30;;;2.13;;
54247;SDS011;40161;39.768;2.722;2023-09-08T09:47:53;4.78;;;2.13;;
54247;SDS011;40161;39.768;2.722;2023-09-08T09:50:31;6.15;;;2.70;;
54247;SDS011;40161;39.768;2.722;2023-09-08T09:52:59;4.03;;;1.92;;
54247;SDS011;40161;39.768;2.722;2023-09-08T09:55:26;4.72;;;2.10;;
54247;SDS011;40161;39.768;2.722;2023-09-08T09:57:56;5.63;;;2.60;;
54247;SDS011;40161;39.768;2.722;2023-09-08T10:00:29;3.65;;;2.00;;
54247;SDS011;40161;39.768;2.722;2023-09-08T10:02:55;4.35;;;2.30;;
54247;SDS011;40161;39.768;2.722;2023-09-08T10:05:21;3.72;;;1.98;;
54247;SDS011;40161;39.768;2.722;2023-09-08T10:07:48;5.07;;;2.40;;
54247;SDS011;40161;39.768;2.722;2023-09-08T10:10:15;5.30;;;2.40;;
54247;SDS011;40161;39.768;2.722;2023-09-08T10:12:43;5.22;;;2.38;;
54247;SDS011;40161;39.768;2.722;2023-09-08T10:15:12;4.78;;;2.42;;
54247;SDS011;40161;39.768;2.722;2023-09-08T10:17:42;4.95;;;2.10;;
54247;SDS011;40161;39.768;2.722;2023-09-08T10:20:11;3.90;;;2.38;;
54247;SDS011;40161;39.768;2.722;2023-09-08T10:22:38;4.47;;;2.13;;
54247;SDS011;40161;39.768;2.722;2023-09-08T10:25:10;6.45;;;2.08;;
54247;SDS011;40161;39.768;2.722;2023-09-08T10:27:37;5.45;;;2.15;;
54247;SDS011;40161;39.768;2.722;2023-09-08T10:30:04;4.05;;;2.10;;
54247;SDS011;40161;39.768;2.722;2023-09-08T10:32:32;5.40;;;2.20;;
54247;SDS011;40161;39.768;2.722;2023-09-08T10:35:00;5.97;;;2.20;;
54247;SDS011;40161;39.768;2.722;2023-09-08T10:37:27;6.20;;;2.10;;
54247;SDS011;40161;39.768;2.722;2023-09-08T10:39:54;4.40;;;2.10;;
54247;SDS011;40161;39.768;2.722;2023-09-08T10:42:21;4.38;;;2.00;;
54247;SDS011;40161;39.768;2.722;2023-09-08T10:47:24;4.20;;;2.00;;
54247;SDS011;40161;39.768;2.722;2023-09-08T10:49:51;5.20;;;1.98;;
54247;SDS011;40161;39.768;2.722;2023-09-08T10:52:22;4.53;;;1.90;;
54247;SDS011;40161;39.768;2.722;2023-09-08T10:54:48;4.57;;;2.13;;
54247;SDS011;40161;39.768;2.722;2023-09-08T10:57:22;5.50;;;2.53;;
54247;SDS011;40161;39.768;2.722;2023-09-08T11:00:02;3.70;;;1.88;;
54247;SDS011;40161;39.768;2.722;2023-09-08T11:02:48;4.20;;;2.03;;
54247;SDS011;40161;39.768;2.722;2023-09-08T11:05:15;4.10;;;2.28;;
54247;SDS011;40161;39.768;2.722;2023-09-08T11:07:43;5.68;;;2.15;;
54247;SDS011;40161;39.768;2.722;2023-09-08T11:10:09;5.30;;;2.22;;
54247;SDS011;40161;39.768;2.722;2023-09-08T11:12:37;5.78;;;2.30;;
54247;SDS011;40161;39.768;2.722;2023-09-08T11:15:03;3.75;;;2.05;;
54247;SDS011;40161;39.768;2.722;2023-09-08T11:17:31;5.13;;;2.28;;
54247;SDS011;40161;39.768;2.722;2023-09-08T11:19:57;5.47;;;2.85;;
54247;SDS011;40161;39.768;2.722;2023-09-08T11:22:24;5.85;;;2.20;;
54247;SDS011;40161;39.768;2.722;2023-09-08T11:24:55;4.65;;;2.08;;
54247;SDS011;40161;39.768;2.722;2023-09-08T11:27:25;6.18;;;2.15;;
54247;SDS011;40161;39.768;2.722;2023-09-08T11:29:52;5.80;;;2.20;;
54247;SDS011;40161;39.768;2.722;2023-09-08T11:32:18;3.75;;;1.80;;
54247;SDS011;40161;39.768;2.722;2023-09-08T11:34:44;4.60;;;2.70;;
54247;SDS011;40161;39.768;2.722;2023-09-08T11:37:10;5.50;;;2.20;;
54247;SDS011;40161;39.768;2.722;2023-09-08T11:39:44;5.05;;;2.08;;
54247;SDS011;40161;39.768;2.722;2023-09-08T11:42:14;4.75;;;2.10;;
54247;SDS011;40161;39.768;2.722;2023-09-08T11:44:41;5.70;;;2.00;;
54247;SDS011;40161;39.768;2.722;2023-09-08T11:47:08;5.90;;;2.35;;
54247;SDS011;40161;39.768;2.722;2023-09-08T11:49:38;5.03;;;2.50;;
54247;SDS011;40161;39.768;2.722;2023-09-08T11:52:05;3.80;;;1.88;;
54247;SDS011;40161;39.768;2.722;2023-09-08T11:54:32;3.58;;;1.85;;
54247;SDS011;40161;39.768;2.722;2023-09-08T11:56:59;5.45;;;2.20;;
54247;SDS011;40161;39.768;2.722;2023-09-08T11:59:33;4.82;;;2.30;;
54247;SDS011;40161;39.768;2.722;2023-09-08T12:02:00;4.85;;;2.53;;
54247;SDS011;40161;39.768;2.722;2023-09-08T12:04:26;4.13;;;2.33;;
54247;SDS011;40161;39.768;2.722;2023-09-08T12:06:53;5.13;;;2.10;;
54247;SDS011;40161;39.768;2.722;2023-09-08T12:09:21;5.10;;;2.22;;
54247;SDS011;40161;39.768;2.722;2023-09-08T12:11:46;5.57;;;2.25;;
54247;SDS011;40161;39.768;2.722;2023-09-08T12:14:13;6.57;;;2.38;;
54247;SDS011;40161;39.768;2.722;2023-09-08T12:16:43;4.10;;;1.98;;
54247;SDS011;40161;39.768;2.722;2023-09-08T12:19:28;3.97;;;2.15;;
54247;SDS011;40161;39.768;2.722;2023-09-08T12:21:56;4.05;;;2.10;;
54247;SDS011;40161;39.768;2.722;2023-09-08T12:27:21;5.30;;;2.20;;
54247;SDS011;40161;39.768;2.722;2023-09-08T12:29:56;5.18;;;1.80;;
54247;SDS011;40161;39.768;2.722;2023-09-08T12:32:23;3.97;;;1.98;;
54247;SDS011;40161;39.768;2.722;2023-09-08T12:34:51;4.72;;;1.90;;
54247;SDS011;40161;39.768;2.722;2023-09-08T12:37:21;3.90;;;2.00;;
54247;SDS011;40161;39.768;2.722;2023-09-08T12:39:48;4.72;;;2.33;;
54247;SDS011;40161;39.768;2.722;2023-09-08T12:42:14;5.68;;;2.38;;
54247;SDS011;40161;39.768;2.722;2023-09-08T12:44:40;4.07;;;2.08;;
54247;SDS011;40161;39.768;2.722;2023-09-08T12:47:06;4.90;;;2.30;;
54247;SDS011;40161;39.768;2.722;2023-09-08T12:49:32;4.72;;;2.35;;
54247;SDS011;40161;39.768;2.722;2023-09-08T12:51:57;4.05;;;2.13;;
54247;SDS011;40161;39.768;2.722;2023-09-08T12:54:23;4.88;;;2.20;;
54247;SDS011;40161;39.768;2.722;2023-09-08T12:56:49;3.55;;;2.03;;
54247;SDS011;40161;39.768;2.722;2023-09-08T12:59:16;5.50;;;2.42;;
54247;SDS011;40161;39.768;2.722;2023-09-08T13:01:41;3.72;;;2.10;;
54247;SDS011;40161;39.768;2.722;2023-09-08T13:04:07;4.03;;;2.00;;
54247;SDS011;40161;39.768;2.722;2023-09-08T13:06:33;4.28;;;1.90;;
54247;SDS011;40161;39.768;2.722;2023-09-08T13:09:00;4.10;;;2.00;;
54247;SDS011;40161;39.768;2.722;2023-09-08T13:11:27;5.30;;;2.55;;
54247;SDS011;40161;39.768;2.722;2023-09-08T13:13:53;4.70;;;2.15;;
54247;SDS011;40161;39.768;2.722;2023-09-08T13:16:19;4.70;;;2.10;;
54247;SDS011;40161;39.768;2.722;2023-09-08T13:18:44;5.80;;;2.17;;
54247;SDS011;40161;39.768;2.722;2023-09-08T13:21:10;6.53;;;2.03;;
54247;SDS011;40161;39.768;2.722;2023-09-08T13:23:36;3.22;;;1.90;;
54247;SDS011;40161;39.768;2.722;2023-09-08T13:26:02;4.57;;;2.03;;
54247;SDS011;40161;39.768;2.722;2023-09-08T13:28:28;4.72;;;2.05;;
54247;SDS011;40161;39.768;2.722;2023-09-08T13:30:53;4.97;;;1.95;;
54247;SDS011;40161;39.768;2.722;2023-09-08T13:33:19;3.63;;;1.95;;
54247;SDS011;40161;39.768;2.722;2023-09-08T13:35:45;4.10;;;2.25;;
54247;SDS011;40161;39.768;2.722;2023-09-08T13:38:11;4.03;;;2.00;;
54247;SDS011;40161;39.768;2.722;2023-09-08T13:40:36;4.50;;;2.00;;
54247;SDS011;40161;39.768;2.722;2023-09-08T13:43:02;3.65;;;2.03;;
54247;SDS011;40161;39.768;2.722;2023-09-08T13:45:28;4.88;;;2.28;;
54247;SDS011;40161;39.768;2.722;2023-09-08T13:47:54;3.70;;;2.00;;
54247;SDS011;40161;39.768;2.722;2023-09-08T13:50:19;4.75;;;2.30;;
54247;SDS011;40161;39.768;2.722;2023-09-08T13:52:45;4.00;;;1.80;;
54247;SDS011;40161;39.768;2.722;2023-09-08T13:55:11;4.55;;;2.15;;
54247;SDS011;40161;39.768;2.722;2023-09-08T13:57:36;4.25;;;2.13;;
54247;SDS011;40161;39.768;2.722;2023-09-08T14:00:02;5.05;;;1.90;;
54247;SDS011;40161;39.768;2.722;2023-09-08T14:02:28;4.97;;;2.10;;
54247;SDS011;40161;39.768;2.722;2023-09-08T14:04:54;4.10;;;2.40;;
54247;SDS011;40161;39.768;2.722;2023-09-08T14:07:20;5.07;;;2.10;;
54247;SDS011;40161;39.768;2.722;2023-09-08T14:09:45;4.70;;;2.08;;
54247;SDS011;40161;39.768;2.722;2023-09-08T14:12:11;4.00;;;2.40;;
54247;SDS011;40161;39.768;2.722;2023-09-08T14:14:37;6.05;;;2.17;;
54247;SDS011;40161;39.768;2.722;2023-09-08T14:17:03;4.15;;;2.10;;
54247;SDS011;40161;39.768;2.722;2023-09-08T14:19:28;6.47;;;2.40;;
54247;SDS011;40161;39.768;2.722;2023-09-08T14:21:54;4.72;;;1.88;;
54247;SDS011;40161;39.768;2.722;2023-09-08T14:24:20;3.63;;;1.92;;
54247;SDS011;40161;39.768;2.722;2023-09-08T14:26:46;4.88;;;1.95;;
54247;SDS011;40161;39.768;2.722;2023-09-08T14:29:12;3.80;;;2.30;;
54247;SDS011;40161;39.768;2.722;2023-09-08T14:31:38;4.90;;;2.00;;
54247;SDS011;40161;39.768;2.722;2023-09-08T14:34:03;4.60;;;1.92;;
54247;SDS011;40161;39.768;2.722;2023-09-08T14:36:29;4.97;;;2.03;;
54247;SDS011;40161;39.768;2.722;2023-09-08T14:38:55;4.18;;;2.00;;
54247;SDS011;40161;39.768;2.722;2023-09-08T14:41:21;4.50;;;2.22;;
54247;SDS011;40161;39.768;2.722;2023-09-08T14:43:47;4.15;;;2.00;;
54247;SDS011;40161;39.768;2.722;2023-09-08T14:46:12;3.58;;;2.05;;
54247;SDS011;40161;39.768;2.722;2023-09-08T14:48:38;3.38;;;2.00;;
54247;SDS011;40161;39.768;2.722;2023-09-08T14:51:04;4.07;;;2.20;;
54247;SDS011;40161;39.768;2.722;2023-09-08T14:53:30;3.38;;;2.05;;
54247;SDS011;40161;39.768;2.722;2023-09-08T14:55:57;5.20;;;2.30;;